INFORMACIÓN METAR y TAF
METAR FOR LERS
ADDS - METARS form results

(2243 UTC 17 January 2020)
Data provider http://aviationweather.gov/metar/data/
 
METAR text: LERS 172230Z AUTO VRB02KT CAVOK 12/M01 Q1030
Conditions at: LERS (REUS (CIV/MIL) , ES) observed 2230 UTC 17 January 2020
Temperature: 12.0°C (54°F)
Dewpoint: -1.0°C (30°F) [RH = 40%]
Pressure (altimeter): 30.41 inches Hg (1030.0 mb)
Winds: variable direction winds at 2 MPH (2 knots; 1.0 m/s)
Visibility: 6 or more miles (10+ km)
Ceiling: ceiling and visibility are OK
Clouds: unknown
Weather: no significant weather observed at this time

METAR text: LERS 172200Z AUTO 28005KT 210V330 CAVOK 13/M02 Q1029
Conditions at: LERS (REUS (CIV/MIL) , ES) observed 2200 UTC 17 January 2020
Temperature: 13.0°C (55°F)
Dewpoint: -2.0°C (28°F) [RH = 35%]
Pressure (altimeter): 30.38 inches Hg (1029.0 mb)
Winds: from the W (280 degrees) at 6 MPH (5 knots; 2.6 m/s)
Visibility: 6 or more miles (10+ km)
Ceiling: ceiling and visibility are OK
Clouds: unknown
Weather: no significant weather observed at this time

Forecast for: AMD
Text: TAF AMD LERS 172059Z 1721/1821 VRB04KT CAVOK TX14/1813Z TN02/1806Z
Forecast period: 2100 UTC 17 January 2020 to 2100 UTC 18 January 2020
Forecast type: FROM: standard forecast or significant change
Winds: variable direction winds at 5 MPH (4 knots; 2.1 m/s)
Visibility: 6 or more miles 10+ km)
Ceiling: unknown
Clouds: missing
Weather: no significant weather forecast for this period
Text: TEMPO 1721/1806 27015KT
Forecast period: 2100 UTC 17 January 2020 to 0600 UTC 18 January 2020
Forecast type: TEMPORARY: The following changes expected for less than half the time period
Winds: from the W (270 degrees) at 17 MPH (15 knots; 7.7 m/s)
Visibility: missing
Ceiling: unknown
Clouds: missing
Weather: no significant weather forecast for this period
Text: TEMPO 1812/1817 20010KT
Forecast period: 1200 to 1700 UTC 18 January 2020
Forecast type: TEMPORARY: The following changes expected for less than half the time period
Winds: from the SSW (200 degrees) at 12 MPH (10 knots; 5.1 m/s)
Visibility: missing
Ceiling: unknown
Clouds: missing
Weather: no significant weather forecast for this period

MAPA DE AEROPUERTO

INFORMACIÓN DE PISTA
Pista 07 Longitud 8054 ft Ancho 148 ft
Elevación 231 ft Umbral desplazado 853 ft Rumbo de pista 69
Pista 25 Longitud 8054 ft Ancho 148 ft
Elevación 234 ft Umbral desplazado 0 ft Rumbo de pista 249
Pista 12 Longitud 3117 ft Ancho 115 ft
Elevación 226 ft Umbral desplazado 0 ft Rumbo de pista 111
Pista 30 Longitud 3117 ft Ancho 115 ft
Elevación 198 ft Umbral desplazado 0 ft Rumbo de pista 291

FRECUANCIAS DEL AEROPUERTO
Tipo APP Nombre APP Frecuencia 118.15 MHZ
Tipo GND Nombre GND Frecuencia 121.7 MHZ
Tipo TWR Nombre TWR Frecuencia 118.15 MHZ

RADIO AYUDAS DEL AEROPUERTO
Tipo VOR-DME Nombre Reus Frecuencia 114200 KHZ
Tipo NDB Nombre Reus Frecuencia 424 KHZ